Time;durP1;ratioP1;P1;durP2;ratioP2;P2;SDS_P1;SDS_P2;PMS_P1;PMS_P2;Temp;Humidity;BMP_temperature;BMP_pressure;BME280_temperature;BME280_humidity;BME280_pressure;Samples;Min_cycle;Max_cycle;Signal;HPM_P1;HPM_P2
2020/12/10 00:00:52;;;;;;;15.03;7.60;;;;;;;-4.56;68.26;101303.75;1818205;78;21053;-69
2020/12/10 00:03:21;;;;;;;15.98;8.68;;;;;;;-4.52;68.37;101295.60;1818979;77;21050;-69
2020/12/10 00:05:50;;;;;;;14.98;8.33;;;;;;;-4.49;68.42;101296.44;1817105;78;22914;-69
2020/12/10 00:08:18;;;;;;;19.00;9.65;;;;;;;-4.45;68.48;101295.98;1818693;77;21596;-69
2020/12/10 00:10:47;;;;;;;10.10;6.12;;;;;;;-4.40;68.52;101294.27;1818953;78;21136;-68
2020/12/10 00:13:15;;;;;;;15.68;9.15;;;;;;;-4.38;68.58;101292.53;1818965;78;21172;-69
2020/12/10 00:15:44;;;;;;;12.10;7.00;;;;;;;-4.36;68.63;101290.36;1818204;78;21144;-69
2020/12/10 00:18:12;;;;;;;15.40;9.05;;;;;;;-4.33;68.68;101287.80;1808181;78;22057;-69
2020/12/10 00:20:41;;;;;;;14.98;8.68;;;;;;;-4.29;68.71;101290.35;1786625;80;21078;-69
2020/12/10 00:23:10;;;;;;;16.52;9.50;;;;;;;-4.24;68.72;101289.92;1779886;78;21473;-68
2020/12/10 00:25:38;;;;;;;15.83;9.00;;;;;;;-4.22;68.72;101292.91;1751885;81;21133;-69
2020/12/10 00:28:06;;;;;;;16.15;8.70;;;;;;;-4.17;68.74;101291.58;1759892;80;21145;-69
2020/12/10 00:30:34;;;;;;;15.25;9.03;;;;;;;-4.13;68.78;101289.44;1751816;82;22051;-69
2020/12/10 00:33:04;;;;;;;19.95;9.15;;;;;;;-4.09;68.83;101278.22;1751721;82;21110;-69
2020/12/10 00:35:32;;;;;;;12.70;7.37;;;;;;;-4.07;68.83;101276.48;1751892;81;21098;-69
2020/12/10 00:38:01;;;;;;;13.45;7.60;;;;;;;-4.04;68.92;101267.02;1777547;79;21081;-69
2020/12/10 00:40:29;;;;;;;17.75;9.45;;;;;;;-4.01;68.94;101266.14;1775250;80;21121;-68
2020/12/10 00:42:57;;;;;;;15.00;8.50;;;;;;;-3.98;68.94;101263.53;1755735;81;22058;-69
2020/12/10 00:45:25;;;;;;;14.98;8.48;;;;;;;-3.97;68.91;101261.38;1775864;79;21171;-69
2020/12/10 00:47:53;;;;;;;19.65;10.65;;;;;;;-3.94;68.88;101263.96;1814167;79;21110;-69
2020/12/10 00:50:21;;;;;;;19.95;10.25;;;;;;;-3.93;68.90;101257.08;1815375;79;21050;-70
2020/12/10 00:52:48;;;;;;;18.85;9.95;;;;;;;-3.93;68.87;101257.08;1796347;79;21133;-69
2020/12/10 00:55:16;;;;;;;17.52;9.53;;;;;;;-3.91;68.92;101260.06;1783635;80;22043;-69
2020/12/10 00:57:44;;;;;;;19.17;9.38;;;;;;;-3.90;68.95;101255.32;1809240;79;21218;-69
2020/12/10 01:00:12;;;;;;;20.62;9.90;;;;;;;-3.89;68.98;101256.17;1815495;79;21038;-70
2020/12/10 01:02:40;;;;;;;21.15;8.80;;;;;;;-3.89;69.05;101256.17;1814523;79;21512;-69
2020/12/10 01:05:09;;;;;;;13.55;7.33;;;;;;;-3.88;69.05;101254.02;1815514;79;21148;-69
2020/12/10 01:07:37;;;;;;;12.98;8.23;;;;;;;-3.89;69.06;101250.58;1815180;79;21919;-69
2020/12/10 01:10:06;;;;;;;14.45;7.92;;;;;;;-3.89;68.98;101244.13;1815151;79;21148;-70
2020/12/10 01:12:34;;;;;;;16.23;9.60;;;;;;;-3.89;68.94;101244.56;1795680;79;21053;-69
2020/12/10 01:15:02;;;;;;;15.60;10.05;;;;;;;-3.90;68.91;101240.27;1769401;79;21058;-70
2020/12/10 01:17:29;;;;;;;15.58;7.80;;;;;;;-3.91;68.82;101237.27;1814661;79;21086;-69
2020/12/10 01:19:57;;;;;;;19.27;9.38;;;;;;;-3.91;68.78;101240.70;1815517;79;21987;-69
2020/12/10 01:22:25;;;;;;;17.02;9.43;;;;;;;-3.90;68.72;101238.98;1815417;79;21137;-69
2020/12/10 01:24:53;;;;;;;17.23;9.63;;;;;;;-3.90;68.68;101233.81;1814615;79;21070;-69
2020/12/10 01:27:22;;;;;;;18.73;8.98;;;;;;;-3.90;68.65;101227.37;1815269;79;21153;-69
2020/12/10 01:29:50;;;;;;;13.15;7.97;;;;;;;-3.89;68.58;101221.34;1814194;79;21049;-69
2020/12/10 01:32:18;;;;;;;17.17;8.95;;;;;;;-3.90;68.54;101223.06;1786097;79;21881;-69
2020/12/10 01:34:45;;;;;;;16.67;9.03;;;;;;;-3.88;68.60;101221.75;1815471;79;21160;-69
2020/12/10 01:37:13;;;;;;;17.32;9.23;;;;;;;-3.89;68.63;101204.56;1815554;79;21045;-70
2020/12/10 01:39:42;;;;;;;14.58;7.55;;;;;;;-3.88;68.70;101198.53;1815657;79;21067;-69
2020/12/10 01:42:09;;;;;;;14.45;7.35;;;;;;;-3.87;68.77;101202.82;1815602;79;21432;-70
2020/12/10 01:44:37;;;;;;;14.50;8.83;;;;;;;-3.88;68.83;101203.69;1815338;79;22053;-69
2020/12/10 01:47:05;;;;;;;19.62;8.98;;;;;;;-3.87;68.78;101214.44;1811005;79;21169;-69
2020/12/10 01:49:36;;;;;;;16.67;8.83;;;;;;;-3.88;68.74;101217.45;1804240;79;21029;-69
2020/12/10 01:52:04;;;;;;;16.05;7.22;;;;;;;-3.91;68.67;101214.90;1807749;79;21066;-70
2020/12/10 01:54:33;;;;;;;12.10;6.95;;;;;;;-3.93;68.61;101219.66;1807786;79;21117;-70
2020/12/10 01:57:01;;;;;;;16.23;8.30;;;;;;;-3.98;68.55;101227.41;1808129;79;22024;-70
2020/12/10 01:59:28;;;;;;;14.35;7.50;;;;;;;-4.00;68.56;101231.73;1807535;79;21141;-70
2020/12/10 02:01:56;;;;;;;14.28;7.92;;;;;;;-4.03;68.57;101229.17;1810277;79;21097;-70
2020/12/10 02:04:29;;;;;;;13.10;7.58;;;;;;;-4.07;68.58;101223.59;1809875;78;21049;-69
2020/12/10 02:06:57;;;;;;;12.45;6.60;;;;;;;-4.11;68.66;101221.48;1810187;78;21520;-69
2020/12/10 02:09:25;;;;;;;18.15;9.68;;;;;;;-4.13;68.73;101224.94;1810284;79;21938;-68
2020/12/10 02:11:53;;;;;;;13.60;7.75;;;;;;;-4.15;68.81;101228.83;1810556;79;21484;-69
2020/12/10 02:14:22;;;;;;;18.00;9.73;;;;;;;-4.15;68.87;101228.83;1810839;79;21050;-69
2020/12/10 02:16:54;;;;;;;15.45;8.20;;;;;;;-4.15;68.96;101235.27;1809735;79;21053;-69
2020/12/10 02:19:22;;;;;;;17.40;9.03;;;;;;;-4.15;69.04;101235.27;1810629;79;21049;-69
2020/12/10 02:21:51;;;;;;;14.73;7.25;;;;;;;-4.14;69.01;101230.97;1796449;79;21865;-70
2020/12/10 02:24:19;;;;;;;13.90;7.50;;;;;;;-4.14;69.02;101238.27;1736901;82;21151;-69
2020/12/10 02:26:47;;;;;;;16.17;9.40;;;;;;;-4.16;68.90;101246.42;1766361;81;21132;-69
2020/12/10 02:29:17;;;;;;;14.40;8.65;;;;;;;-4.17;68.89;101238.70;1767091;81;21058;-70
2020/12/10 02:31:44;;;;;;;13.65;7.20;;;;;;;-4.17;68.85;101234.40;1716486;82;21061;-70
2020/12/10 02:34:12;;;;;;;19.77;9.60;;;;;;;-4.19;68.81;101227.11;1767487;81;22862;-70
2020/12/10 02:36:43;;;;;;;13.20;7.40;;;;;;;-4.20;68.77;101239.58;1734574;82;21105;-70
2020/12/10 02:39:10;;;;;;;15.63;8.80;;;;;;;-4.21;68.75;101240.45;1711682;82;21070;-70
2020/12/10 02:41:38;;;;;;;13.30;7.40;;;;;;;-4.23;68.72;101238.31;1733320;81;21157;-70
2020/12/10 02:44:06;;;;;;;16.25;7.95;;;;;;;-4.25;68.81;101232.72;1735424;82;21181;-70
2020/12/10 02:46:34;;;;;;;12.53;6.97;;;;;;;-4.25;68.86;101226.27;1734372;82;21892;-70
2020/12/10 02:49:02;;;;;;;18.12;8.88;;;;;;;-4.25;68.89;101224.55;1744786;81;21505;-70
2020/12/10 02:51:30;;;;;;;16.15;9.50;;;;;;;-4.26;68.99;101224.13;1743833;81;21069;-70
2020/12/10 02:53:58;;;;;;;18.80;8.23;;;;;;;-4.27;69.02;101224.14;1767130;81;21615;-70
2020/12/10 02:56:26;;;;;;;18.92;9.65;;;;;;;-4.27;69.09;101228.86;1763477;80;21172;-70
2020/12/10 02:58:54;;;;;;;16.35;8.73;;;;;;;-4.27;69.13;101225.43;1766652;81;21889;-70
2020/12/10 03:01:21;;;;;;;16.85;7.42;;;;;;;-4.28;69.16;101232.31;1734572;81;21528;-70
2020/12/10 03:03:49;;;;;;;18.80;9.78;;;;;;;-4.26;69.25;101232.30;1767382;81;21092;-70
2020/12/10 03:06:17;;;;;;;19.62;9.63;;;;;;;-4.26;69.27;101234.44;1711539;82;21104;-72
2020/12/10 03:08:45;;;;;;;18.05;9.60;;;;;;;-4.26;69.35;101224.13;1766959;81;21101;-71
2020/12/10 03:11:12;;;;;;;20.95;9.75;;;;;;;-4.24;69.41;101220.28;1735064;81;22096;-70
2020/12/10 03:13:40;;;;;;;20.27;11.00;;;;;;;-4.22;69.49;101227.56;1766397;81;21117;-70
2020/12/10 03:16:08;;;;;;;18.77;10.53;;;;;;;-4.21;69.54;101212.08;1764957;81;22518;-70
2020/12/10 03:18:36;;;;;;;13.18;7.53;;;;;;;-4.19;69.57;101207.76;1767312;80;21196;-70
2020/12/10 03:21:03;;;;;;;13.72;7.85;;;;;;;-4.17;69.54;101207.75;1712278;82;21472;-70
2020/12/10 03:23:31;;;;;;;17.15;9.65;;;;;;;-4.17;69.53;101197.42;1766704;81;21835;-69
2020/12/10 03:25:58;;;;;;;15.75;9.23;;;;;;;-4.18;69.54;101196.57;1748583;80;21145;-70
2020/12/10 03:28:26;;;;;;;16.35;8.68;;;;;;;-4.18;69.60;101199.59;1767182;80;21069;-69
2020/12/10 03:30:54;;;;;;;17.07;10.45;;;;;;;-4.18;69.63;101193.99;1733752;81;21077;-70
2020/12/10 03:33:22;;;;;;;19.70;10.15;;;;;;;-4.17;69.65;101187.11;1767128;81;21338;-70
2020/12/10 03:35:50;;;;;;;19.17;10.45;;;;;;;-4.17;69.71;101178.94;1766835;80;22017;-70
2020/12/10 03:38:18;;;;;;;19.87;10.78;;;;;;;-4.17;69.70;101176.36;1766821;80;21121;-71
2020/12/10 03:40:45;;;;;;;15.00;8.38;;;;;;;-4.15;69.63;101187.95;1747349;80;21663;-69
2020/12/10 03:43:13;;;;;;;24.55;11.70;;;;;;;-4.18;69.65;101186.25;1767337;81;21061;-70
2020/12/10 03:45:42;;;;;;;17.35;9.43;;;;;;;-4.16;69.70;101182.37;1720813;81;21062;-70
2020/12/10 03:48:09;;;;;;;19.42;10.43;;;;;;;-4.14;69.76;101180.66;1773033;79;22960;-70
2020/12/10 03:50:37;;;;;;;20.50;11.75;;;;;;;-4.13;69.88;101182.37;1774365;80;21116;-70
2020/12/10 03:53:05;;;;;;;19.77;9.50;;;;;;;-4.11;69.95;101167.30;1773779;80;21530;-70
2020/12/10 03:55:33;;;;;;;14.28;8.15;;;;;;;-4.09;70.00;101170.72;1774395;80;21077;-70
2020/12/10 03:58:01;;;;;;;19.15;10.45;;;;;;;-4.09;70.03;101173.73;1774184;80;21057;-70
2020/12/10 04:00:29;;;;;;;19.05;9.95;;;;;;;-4.12;70.01;101164.73;1814954;79;21965;-69
2020/12/10 04:02:57;;;;;;;21.52;10.78;;;;;;;-4.14;70.00;101165.19;1769142;79;21125;-69
2020/12/10 04:05:26;;;;;;;19.37;9.50;;;;;;;-4.18;69.98;101157.88;1815188;79;21029;-69
2020/12/10 04:07:54;;;;;;;15.95;9.28;;;;;;;-4.21;69.97;101159.63;1815046;79;21474;-70
2020/12/10 04:10:22;;;;;;;14.50;8.05;;;;;;;-4.27;69.94;101160.52;1815668;79;21034;-70
2020/12/10 04:12:50;;;;;;;17.30;9.75;;;;;;;-4.34;69.98;101160.16;1815414;79;21481;-69
2020/12/10 04:15:18;;;;;;;14.83;8.38;;;;;;;-4.41;69.99;101160.61;1815798;79;21536;-69
2020/12/10 04:17:45;;;;;;;19.27;9.28;;;;;;;-4.45;70.04;101166.63;1815257;79;21148;-69
2020/12/10 04:20:13;;;;;;;17.65;9.10;;;;;;;-4.49;70.09;101162.37;1805745;79;21066;-69
2020/12/10 04:22:41;;;;;;;16.23;9.05;;;;;;;-4.52;70.13;101167.98;1773071;79;21156;-70
2020/12/10 04:25:09;;;;;;;16.52;9.43;;;;;;;-4.57;70.17;101165.41;1815533;79;22075;-70
2020/12/10 04:27:36;;;;;;;22.50;10.35;;;;;;;-4.59;70.30;101164.56;1815157;79;22491;-69
2020/12/10 04:30:04;;;;;;;15.05;9.33;;;;;;;-4.62;70.37;101161.58;1815668;79;21049;-70
2020/12/10 04:32:32;;;;;;;20.57;10.88;;;;;;;-4.64;70.41;101156.84;1815534;79;21053;-69
2020/12/10 04:34:59;;;;;;;19.70;11.10;;;;;;;-4.65;70.45;101152.98;1799306;79;21113;-70
2020/12/10 04:37:27;;;;;;;19.55;10.28;;;;;;;-4.67;70.48;101158.16;1800974;79;21919;-70
2020/12/10 04:39:54;;;;;;;18.07;10.43;;;;;;;-4.67;70.51;101158.59;1766248;79;21527;-70
2020/12/10 04:42:22;;;;;;;18.95;10.18;;;;;;;-4.71;70.59;101157.75;1765652;79;21052;-70
2020/12/10 04:44:50;;;;;;;15.93;7.70;;;;;;;-4.71;70.63;101168.06;1743035;80;21053;-69
2020/12/10 04:47:18;;;;;;;20.25;11.08;;;;;;;-4.73;70.67;101163.76;1768283;80;21132;-69
2020/12/10 04:49:46;;;;;;;22.55;11.95;;;;;;;-4.75;70.71;101161.19;1730161;81;21904;-71
2020/12/10 04:52:13;;;;;;;17.73;9.70;;;;;;;-4.75;70.76;101166.78;1741697;81;21109;-70
2020/12/10 04:54:43;;;;;;;22.58;10.95;;;;;;;-4.76;70.79;101163.34;1753982;80;21188;-70
2020/12/10 04:57:11;;;;;;;23.32;11.08;;;;;;;-4.77;70.94;101162.07;1730312;81;21093;-68
2020/12/10 04:59:39;;;;;;;20.82;11.35;;;;;;;-4.77;71.07;101172.37;1707073;81;21124;-68
2020/12/10 05:02:11;;;;;;;13.03;8.00;;;;;;;-4.78;71.25;101167.66;1753731;81;22099;-67
2020/12/10 05:04:41;;;;;;;15.10;8.23;;;;;;;-4.75;71.43;101175.80;1745343;82;21149;-67
2020/12/10 05:07:38;;;;;;;20.00;9.93;;;;;;;-4.71;71.58;101171.93;1859735;74;26571;-68
2020/12/10 05:10:06;;;;;;;21.85;10.98;;;;;;;-4.71;71.67;101178.38;1789621;79;21122;-67
2020/12/10 05:12:33;;;;;;;21.20;12.00;;;;;;;-4.70;71.76;101172.35;1817972;79;21880;-69
2020/12/10 05:15:01;;;;;;;19.92;10.88;;;;;;;-4.67;71.81;101176.63;1787584;79;21552;-69
2020/12/10 05:17:29;;;;;;;18.52;9.98;;;;;;;-4.66;71.85;101174.04;1784433;79;21137;-71
2020/12/10 05:19:58;;;;;;;23.27;12.68;;;;;;;-4.64;71.89;101171.02;1793413;79;21049;-73
2020/12/10 05:22:25;;;;;;;20.17;11.03;;;;;;;-4.63;71.89;101168.89;1816757;77;21048;-72
2020/12/10 05:25:01;;;;;;;21.80;13.15;;;;;;;-4.60;71.92;101174.45;1818459;77;22027;-71
2020/12/10 05:27:29;;;;;;;31.77;16.15;;;;;;;-4.60;71.95;101170.59;1805915;79;21154;-71
2020/12/10 05:29:58;;;;;;;30.92;16.62;;;;;;;-4.57;71.92;101169.71;1768709;79;21517;-70
2020/12/10 05:32:36;;;;;;;21.23;11.63;;;;;;;-4.57;71.84;101159.40;1787926;79;21058;-69
2020/12/10 05:35:19;;;;;;;22.65;12.75;;;;;;;-4.56;71.72;101159.82;1791853;78;21081;-70
2020/12/10 05:37:50;;;;;;;23.60;13.83;;;;;;;-4.58;71.59;101157.69;1816320;78;22038;-72
2020/12/10 05:40:17;;;;;;;26.30;15.28;;;;;;;-4.59;71.49;101163.72;1807521;79;21118;-70
2020/12/10 05:42:50;;;;;;;28.95;16.10;;;;;;;-4.61;71.42;101159.42;1799494;79;21040;-80
2020/12/10 05:45:22;;;;;;;26.23;16.45;;;;;;;-4.61;71.40;101160.72;1787398;77;21449;-75
2020/12/10 05:47:58;;;;;;;20.02;11.33;;;;;;;-4.59;71.38;101158.56;1793479;79;21166;-72
2020/12/10 05:50:29;;;;;;;24.85;12.78;;;;;;;-4.60;71.37;101157.70;1814805;78;22085;-72
2020/12/10 05:53:11;;;;;;;23.70;13.75;;;;;;;-4.57;71.33;101156.83;1804724;78;21155;-73
2020/12/10 05:55:45;;;;;;;23.50;11.65;;;;;;;-4.59;71.28;101158.13;1795274;79;21152;-72
2020/12/10 05:58:12;;;;;;;28.57;14.03;;;;;;;-4.56;71.24;101172.71;1788208;79;21186;-73
2020/12/10 06:00:40;;;;;;;30.48;17.20;;;;;;;-4.55;71.13;101178.29;1787223;79;21154;-73
2020/12/10 06:03:09;;;;;;;29.12;16.60;;;;;;;-4.57;70.95;101171.86;1803490;79;22029;-73
2020/12/10 06:05:38;;;;;;;30.45;14.23;;;;;;;-4.57;70.95;101169.71;1758468;78;21052;-73
2020/12/10 06:08:07;;;;;;;27.10;14.55;;;;;;;-4.55;70.88;101164.11;1765694;79;21053;-73
2020/12/10 06:10:39;;;;;;;31.12;15.83;;;;;;;-4.54;70.85;101166.67;1748015;81;21069;-73
2020/12/10 06:13:10;;;;;;;30.68;17.17;;;;;;;-4.54;70.77;101160.23;1722197;82;21057;-73
2020/12/10 06:15:37;;;;;;;29.80;15.45;;;;;;;-4.54;70.76;101164.09;1719960;83;21885;-73
2020/12/10 06:18:10;;;;;;;23.87;13.55;;;;;;;-4.52;70.79;101155.95;1739329;82;21305;-73
2020/12/10 06:20:41;;;;;;;34.15;16.85;;;;;;;-4.50;70.76;101153.36;1726276;82;21069;-73
2020/12/10 06:23:31;;;;;;;30.08;16.57;;;;;;;-4.47;70.80;101151.61;1727827;82;21480;-73
2020/12/10 06:26:03;;;;;;;34.58;17.92;;;;;;;-4.42;70.79;101158.05;1736301;82;21448;-73
2020/12/10 06:28:30;;;;;;;37.48;19.02;;;;;;;-4.39;70.76;101159.31;1732201;82;22965;-72
2020/12/10 06:31:09;;;;;;;33.00;19.10;;;;;;;-4.38;70.75;101146.40;1720020;82;21090;-73
2020/12/10 06:33:45;;;;;;;26.48;15.15;;;;;;;-4.34;70.77;101144.68;1731470;82;21113;-72
2020/12/10 06:36:26;;;;;;;32.35;17.62;;;;;;;-4.30;70.81;101142.92;1730297;82;21139;-73
2020/12/10 06:38:55;;;;;;;36.25;20.02;;;;;;;-4.25;70.78;101143.73;1741021;80;21057;-72
2020/12/10 06:41:24;;;;;;;28.92;14.85;;;;;;;-4.22;70.84;101144.59;1739655;82;22963;-73
2020/12/10 06:43:52;;;;;;;30.25;15.98;;;;;;;-4.18;70.86;101136.39;1731854;81;21385;-72
2020/12/10 06:46:21;;;;;;;36.65;21.23;;;;;;;-4.14;70.89;101144.11;1705683;82;21176;-72
2020/12/10 06:48:50;;;;;;;36.48;20.50;;;;;;;-4.10;70.93;101142.36;1719629;82;21072;-73
2020/12/10 06:51:21;;;;;;;30.52;16.57;;;;;;;-4.06;70.94;101141.45;1725307;82;21053;-72
2020/12/10 06:54:07;;;;;;;35.50;20.50;;;;;;;-3.99;71.02;101146.14;1736288;82;22947;-73
2020/12/10 06:57:07;;;;;;;38.48;20.17;;;;;;;-3.96;71.04;101146.11;1738088;81;21133;-73
2020/12/10 06:59:40;;;;;;;43.90;21.82;;;;;;;-3.91;71.07;101136.62;1738120;82;21077;-73
2020/12/10 07:02:19;;;;;;;40.50;19.48;;;;;;;-3.84;71.10;101135.72;1738236;82;21050;-73
2020/12/10 07:04:50;;;;;;;44.30;22.93;;;;;;;-3.80;71.14;101136.09;1736804;82;21097;-74
2020/12/10 07:07:21;;;;;;;34.80;18.67;;;;;;;-3.77;71.12;101129.61;1710653;82;21995;-72
2020/12/10 07:09:59;;;;;;;37.90;19.75;;;;;;;-3.72;71.11;101118.83;1729299;81;21214;-73
2020/12/10 07:12:32;;;;;;;29.92;15.60;;;;;;;-3.68;71.17;101115.33;1758947;80;21048;-73
2020/12/10 07:15:14;;;;;;;36.65;19.10;;;;;;;-3.63;71.25;101112.72;1759808;81;21556;-69
2020/12/10 07:17:48;;;;;;;37.38;18.20;;;;;;;-3.59;71.28;101111.37;1749235;81;21478;-69
2020/12/10 07:20:17;;;;;;;26.50;13.93;;;;;;;-3.56;71.34;101110.51;1738672;81;24181;-72
2020/12/10 07:22:45;;;;;;;24.57;13.58;;;;;;;-3.53;71.37;101119.08;1750229;81;21496;-69
2020/12/10 07:25:13;;;;;;;30.65;17.25;;;;;;;-3.50;71.45;101123.34;1759898;81;21131;-71
2020/12/10 07:27:43;;;;;;;26.40;13.83;;;;;;;-3.49;71.51;101122.03;1758702;81;21214;-70
2020/12/10 07:30:15;;;;;;;34.43;16.10;;;;;;;-3.45;71.58;101122.88;1758765;81;21099;-72
2020/12/10 07:32:43;;;;;;;30.57;14.63;;;;;;;-3.43;71.61;101123.70;1751359;81;22822;-71
2020/12/10 07:35:11;;;;;;;21.97;12.40;;;;;;;-3.40;71.68;101127.98;1760948;81;21143;-71
2020/12/10 07:37:40;;;;;;;31.30;17.05;;;;;;;-3.39;71.72;101116.77;1760617;81;21184;-69
2020/12/10 07:40:17;;;;;;;27.35;14.75;;;;;;;-3.39;71.74;101112.90;1754051;81;21119;-71
2020/12/10 07:42:45;;;;;;;27.58;16.15;;;;;;;-3.37;71.78;101122.80;1716939;81;21124;-71
2020/12/10 07:45:18;;;;;;;26.73;13.88;;;;;;;-3.36;71.82;101110.31;1756987;81;21877;-71
2020/12/10 07:47:57;;;;;;;28.50;13.98;;;;;;;-3.32;71.88;101109.39;1730431;81;23011;-70
2020/12/10 07:50:25;;;;;;;21.65;11.88;;;;;;;-3.28;71.98;101098.14;1745518;82;21169;-70
2020/12/10 07:52:55;;;;;;;31.27;15.00;;;;;;;-3.26;72.00;101093.39;1735488;81;21156;-73
2020/12/10 07:55:27;;;;;;;29.63;14.87;;;;;;;-3.22;72.05;101093.77;1754117;80;21136;-71
2020/12/10 07:58:19;;;;;;;31.23;15.07;;;;;;;-3.21;72.21;101087.72;1745399;82;22138;-70
2020/12/10 08:00:47;;;;;;;32.17;17.30;;;;;;;-3.18;72.31;101086.42;1759603;80;21485;-70
2020/12/10 08:03:47;;;;;;;30.00;15.65;;;;;;;-3.15;72.38;101076.48;1718518;81;21500;-71
2020/12/10 08:06:16;;;;;;;29.12;14.85;;;;;;;-3.11;72.45;101071.67;1781952;80;21311;-69
2020/12/10 08:08:48;;;;;;;28.85;14.87;;;;;;;-3.08;72.50;101069.08;1815681;79;21040;-70
2020/12/10 08:11:18;;;;;;;32.63;13.75;;;;;;;-3.06;72.57;101058.28;1815123;79;22924;-69
2020/12/10 08:14:01;;;;;;;23.98;14.00;;;;;;;-3.04;72.71;101059.55;1815799;79;21189;-69
2020/12/10 08:16:40;;;;;;;26.75;13.78;;;;;;;-3.06;72.91;101053.11;1807100;79;21541;-69
2020/12/10 08:19:22;;;;;;;30.45;15.55;;;;;;;-3.05;73.04;101053.52;1813960;77;21051;-67
2020/12/10 08:21:51;;;;;;;29.65;14.55;;;;;;;-3.03;73.26;101060.81;1786604;77;21151;-69
2020/12/10 08:24:41;;;;;;;32.48;16.10;;;;;;;-3.05;73.42;101052.67;1802850;79;22114;-69
2020/12/10 08:27:13;;;;;;;33.15;16.27;;;;;;;-3.04;73.54;101042.74;1786957;79;21077;-69
2020/12/10 08:30:01;;;;;;;29.60;14.73;;;;;;;-3.03;73.70;101042.72;1777697;79;21749;-71
2020/12/10 08:32:59;;;;;;;20.93;12.17;;;;;;;-2.96;73.78;101037.90;1869088;76;29443;-69
2020/12/10 08:35:29;;;;;;;25.55;13.53;;;;;;;-2.97;73.73;101049.55;1772717;80;21473;-69
2020/12/10 08:37:56;;;;;;;28.55;15.05;;;;;;;-3.00;73.58;101058.17;1759107;81;21878;-69
2020/12/10 08:40:27;;;;;;;27.25;14.00;;;;;;;-3.04;73.48;101056.96;1784173;77;21081;-68
2020/12/10 08:42:55;;;;;;;25.02;12.10;;;;;;;-3.09;73.43;101065.19;1823892;77;21474;-73
2020/12/10 08:45:34;;;;;;;29.27;14.07;;;;;;;-3.15;73.45;101058.83;1845238;77;21125;-69
2020/12/10 08:48:02;;;;;;;28.73;13.88;;;;;;;-3.22;73.52;101061.47;1794703;79;21541;-67
2020/12/10 08:50:30;;;;;;;24.92;11.80;;;;;;;-3.24;73.62;101052.04;1842909;77;22097;-67
2020/12/10 08:53:08;;;;;;;25.92;13.60;;;;;;;-3.25;73.67;101046.45;1842074;77;21105;-67
2020/12/10 08:55:46;;;;;;;29.02;15.25;;;;;;;-3.29;73.81;101041.74;1845619;77;21138;-67
2020/12/10 08:58:19;;;;;;;24.67;12.20;;;;;;;-3.33;73.95;101037.50;1789831;79;21190;-67
2020/12/10 09:00:48;;;;;;;29.30;14.00;;;;;;;-3.34;74.06;101046.13;1815711;78;21129;-67
2020/12/10 09:03:16;;;;;;;28.52;12.68;;;;;;;-3.36;74.12;101052.19;1815709;79;22036;-67
2020/12/10 09:05:44;;;;;;;30.85;13.38;;;;;;;-3.39;74.16;101043.16;1815628;79;21177;-67
2020/12/10 09:08:13;;;;;;;24.43;12.95;;;;;;;-3.41;74.23;101052.23;1814914;77;21153;-67
2020/12/10 09:10:41;;;;;;;37.15;13.68;;;;;;;-3.40;74.35;101052.64;1825758;78;21196;-67
2020/12/10 09:13:09;;;;;;;34.33;13.83;;;;;;;-3.40;74.43;101057.81;1821333;78;21148;-67
2020/12/10 09:15:40;;;;;;;30.12;13.93;;;;;;;-3.41;74.48;101043.63;1821749;78;21868;-66
2020/12/10 09:18:13;;;;;;;23.80;11.60;;;;;;;-3.43;74.50;101056.56;1821884;77;21113;-66
2020/12/10 09:20:41;;;;;;;32.23;16.70;;;;;;;-3.42;74.53;101045.36;1816488;79;21572;-67
2020/12/10 09:23:10;;;;;;;27.65;14.65;;;;;;;-3.42;74.58;101038.90;1816356;78;21146;-66
2020/12/10 09:25:39;;;;;;;30.97;14.23;;;;;;;-3.39;74.61;101038.00;1816408;79;21074;-67
2020/12/10 09:28:08;;;;;;;29.52;14.45;;;;;;;-3.37;74.62;101033.26;1815739;77;23023;-67
2020/12/10 09:30:38;;;;;;;30.75;13.35;;;;;;;-3.37;74.65;101027.23;1814425;79;21082;-67
2020/12/10 09:33:07;;;;;;;31.17;15.68;;;;;;;-3.35;74.65;101032.80;1814170;78;21054;-67
2020/12/10 09:35:35;;;;;;;27.40;13.53;;;;;;;-3.35;74.62;101039.25;1804144;79;21065;-67
2020/12/10 09:38:05;;;;;;;32.45;14.70;;;;;;;-3.33;74.63;101041.38;1806978;79;21082;-67
2020/12/10 09:40:33;;;;;;;29.10;13.62;;;;;;;-3.35;74.58;101048.30;1806998;79;21867;-67
2020/12/10 09:43:01;;;;;;;35.20;17.75;;;;;;;-3.39;74.56;101043.16;1806092;78;21190;-67
2020/12/10 09:45:29;;;;;;;26.77;13.28;;;;;;;-3.41;74.55;101047.06;1849133;77;21133;-67
2020/12/10 09:47:58;;;;;;;28.65;13.90;;;;;;;-3.40;74.61;101042.75;1849118;77;21062;-67
2020/12/10 09:50:29;;;;;;;30.92;13.90;;;;;;;-3.40;74.58;101039.73;1849136;77;21033;-67
2020/12/10 09:53:04;;;;;;;31.02;15.75;;;;;;;-3.40;74.55;101042.31;1849113;77;21484;-67
2020/12/10 09:57:56;;;;;;;35.08;16.30;;;;;;;-3.39;74.60;101028.96;1849102;77;21046;-67
2020/12/10 10:00:24;;;;;;;34.23;15.63;;;;;;;-3.39;74.61;101034.13;1840829;77;21042;-67
2020/12/10 10:02:52;;;;;;;34.83;17.30;;;;;;;-3.41;74.66;101033.30;1821301;78;21098;-67
2020/12/10 10:05:21;;;;;;;23.38;12.25;;;;;;;-3.44;74.74;101033.34;1821205;78;22020;-67
2020/12/10 10:07:48;;;;;;;28.52;14.35;;;;;;;-3.43;74.81;101038.92;1759133;78;21187;-67
2020/12/10 10:10:17;;;;;;;32.05;14.98;;;;;;;-3.43;74.79;101038.92;1838399;77;21141;-67
2020/12/10 10:12:45;;;;;;;31.57;15.38;;;;;;;-3.43;74.81;101032.47;1783357;79;21050;-67
2020/12/10 10:15:14;;;;;;;29.63;15.25;;;;;;;-3.47;74.81;101033.80;1763247;81;21071;-67
2020/12/10 10:17:41;;;;;;;34.10;16.50;;;;;;;-3.44;74.85;101032.05;1792767;77;22045;-67
2020/12/10 10:20:09;;;;;;;31.07;13.43;;;;;;;-3.41;74.86;101026.84;1848906;77;21132;-67
2020/12/10 10:22:41;;;;;;;32.03;14.95;;;;;;;-3.39;74.89;101027.67;1849165;77;21481;-67
2020/12/10 10:25:09;;;;;;;25.17;12.60;;;;;;;-3.37;74.88;101016.47;1849099;77;21465;-68
2020/12/10 10:27:36;;;;;;;30.90;13.58;;;;;;;-3.37;74.90;101013.89;1849004;77;21046;-68
2020/12/10 10:30:06;;;;;;;35.63;18.00;;;;;;;-3.36;74.91;101011.72;1849116;77;21862;-68
2020/12/10 10:32:34;;;;;;;30.05;14.68;;;;;;;-3.37;74.89;101014.33;1851196;77;21196;-68
2020/12/10 10:35:03;;;;;;;27.13;13.30;;;;;;;-3.35;74.93;101013.42;1835037;77;21129;-67
2020/12/10 10:37:30;;;;;;;31.20;15.08;;;;;;;-3.33;74.92;101010.81;1821517;78;21544;-66
2020/12/10 10:39:59;;;;;;;28.52;14.78;;;;;;;-3.34;74.90;101007.82;1821518;78;21042;-66
2020/12/10 10:42:29;;;;;;;26.35;13.48;;;;;;;-3.34;74.90;101003.51;1821262;78;22037;-66
2020/12/10 10:44:57;;;;;;;25.45;13.68;;;;;;;-3.35;74.91;100998.36;1821501;78;21059;-67
2020/12/10 10:47:26;;;;;;;29.87;16.20;;;;;;;-3.38;74.89;101001.81;1821500;78;21034;-67
2020/12/10 10:49:54;;;;;;;30.65;16.57;;;;;;;-3.38;74.91;100997.09;1821540;78;21571;-67
2020/12/10 10:52:22;;;;;;;28.23;14.68;;;;;;;-3.38;74.92;100993.22;1821269;78;21093;-67
2020/12/10 10:54:50;;;;;;;32.15;16.50;;;;;;;-3.37;74.94;101000.97;1821481;78;21873;-67
2020/12/10 10:57:17;;;;;;;28.57;15.25;;;;;;;-3.37;74.94;101008.72;1821482;78;21069;-67
2020/12/10 10:59:45;;;;;;;36.70;16.45;;;;;;;-3.37;74.93;101002.70;1821495;78;21047;-67
2020/12/10 11:02:14;;;;;;;38.95;17.12;;;;;;;-3.39;74.94;100994.95;1821448;78;21125;-67
2020/12/10 11:04:42;;;;;;;31.40;17.75;;;;;;;-3.38;74.95;100998.38;1821548;78;21086;-67
2020/12/10 11:07:10;;;;;;;28.40;14.78;;;;;;;-3.36;74.96;101002.68;1821469;77;21564;-67
2020/12/10 11:09:38;;;;;;;26.40;13.65;;;;;;;-3.33;74.90;101005.22;1819309;77;21066;-67
2020/12/10 11:12:06;;;;;;;33.35;17.27;;;;;;;-3.34;74.74;101001.36;1817703;78;21053;-67
2020/12/10 11:14:35;;;;;;;28.30;15.18;;;;;;;-3.38;74.70;101011.30;1818750;78;21078;-67
2020/12/10 11:17:03;;;;;;;26.70;14.23;;;;;;;-3.41;74.67;101012.20;1818914;78;21154;-67
2020/12/10 11:19:31;;;;;;;34.27;16.80;;;;;;;-3.41;74.66;101011.34;1818938;77;22008;-68
2020/12/10 11:22:00;;;;;;;31.93;17.40;;;;;;;-3.40;74.65;101011.76;1818803;78;21153;-67
2020/12/10 11:24:28;;;;;;;30.00;16.40;;;;;;;-3.40;74.63;100998.41;1818905;78;21071;-67
2020/12/10 11:26:56;;;;;;;33.53;17.62;;;;;;;-3.37;74.53;100998.83;1821309;77;21069;-67